Time;durP1;ratioP1;P1;durP2;ratioP2;P2;SDS_P1;SDS_P2;PMS_P1;PMS_P2;Temp;Humidity;BMP_temperature;BMP_pressure;BME280_temperature;BME280_humidity;BME280_pressure;Samples;Min_cycle;Max_cycle;Signal;HPM_P1;HPM_P2
2022/12/15 00:40:36;;;;;;;;;;;;;;;-1.55;100.00;100496.09;5058874;28;19997;-82
2022/12/15 00:43:02;;;;;;;;;;;;;;;-1.59;100.00;100494.59;5058088;28;20371;-82
2022/12/15 00:46:53;;;;;;;;;;;;;;;-1.62;100.00;100487.00;5042448;28;19946;-83
2022/12/15 00:48:12;;;;;;;;;;;;;;;-1.59;100.00;100484.25;5058120;28;19932;-83
2022/12/15 00:50:53;;;;;;;;;;;;;;;-1.60;100.00;100481.75;5058907;28;19913;-83
2022/12/15 01:20:42;;;;;;;;;;;;;;;-2.04;100.00;100482.31;5059618;28;20335;-81
2022/12/15 01:23:07;;;;;;;;;;;;;;;-2.10;100.00;100493.78;5057215;28;19959;-82
2022/12/15 01:25:32;;;;;;;;;;;;;;;-2.12;100.00;100488.69;5059012;28;19979;-83
2022/12/15 01:27:58;;;;;;;;;;;;;;;-2.18;100.00;100496.75;5042831;28;19921;-83
2022/12/15 01:30:24;;;;;;;;;;;;;;;-2.25;100.00;100495.38;5057803;28;20007;-82
2022/12/15 01:32:49;;;;;;;;;;;;;;;-2.25;100.00;100487.63;5058091;28;19923;-83
2022/12/15 01:35:15;;;;;;;;;;;;;;;-2.28;100.00;100492.97;5057647;28;20427;-83
2022/12/15 01:37:40;;;;;;;;;;;;;;;-2.31;100.00;100493.09;5059361;28;19924;-83
2022/12/15 01:42:51;;;;;;;;;;;;;;;-2.43;100.00;100498.91;5057023;28;19966;-84
2022/12/15 01:45:19;;;;;;;;;;;;;;;-2.50;100.00;100495.78;5058050;28;20352;-84
2022/12/15 01:47:44;;;;;;;;;;;;;;;-2.60;100.00;100492.78;5058744;28;19920;-83
2022/12/15 01:50:12;;;;;;;;;;;;;;;-2.64;100.00;100496.44;5058681;28;19916;-84
2022/12/15 01:52:37;;;;;;;;;;;;;;;-2.70;100.00;100501.88;5058585;28;19908;-82
2022/12/15 01:55:04;;;;;;;;;;;;;;;-2.72;100.00;100503.75;5057222;28;19924;-84
2022/12/15 01:57:31;;;;;;;;;;;;;;;-2.72;100.00;100501.97;5058409;28;19966;-84
2022/12/15 01:59:58;;;;;;;;;;;;;;;-2.78;100.00;100499.69;5055967;28;19917;-83
2022/12/15 02:02:25;;;;;;;;;;;;;;;-2.78;100.00;100506.59;5056990;28;19912;-83
2022/12/15 02:04:51;;;;;;;;;;;;;;;-2.84;100.00;100496.56;5058894;28;20515;-84
2022/12/15 02:07:17;;;;;;;;;;;;;;;-2.84;100.00;100499.16;5056993;28;19919;-80
2022/12/15 02:09:44;;;;;;;;;;;;;;;-2.91;100.00;100502.00;5057673;28;19916;-84
2022/12/15 02:12:16;;;;;;;;;;;;;;;-2.88;100.00;100502.78;5072803;28;20261;-83
2022/12/15 02:15:01;;;;;;;;;;;;;;;-2.87;100.00;100496.69;5055516;28;20295;-83
2022/12/15 02:17:50;;;;;;;;;;;;;;;-2.85;100.00;100512.94;5059190;28;19912;-83
2022/12/15 02:20:34;;;;;;;;;;;;;;;-2.85;100.00;100506.06;5057451;28;19913;-84
2022/12/15 02:23:18;;;;;;;;;;;;;;;-2.87;100.00;100507.03;5057989;28;19913;-83
2022/12/15 02:25:49;;;;;;;;;;;;;;;-2.92;100.00;100515.84;5058181;28;19916;-84
2022/12/15 02:28:23;;;;;;;;;;;;;;;-2.98;100.00;100518.72;5057009;28;19916;-82
2022/12/15 02:33:51;;;;;;;;;;;;;;;-3.09;100.00;100523.53;5056986;28;19925;-83
2022/12/15 02:36:26;;;;;;;;;;;;;;;-3.17;100.00;100523.06;5073336;28;19913;-82
2022/12/15 02:38:51;;;;;;;;;;;;;;;-3.22;100.00;100527.56;5057818;28;19920;-82
2022/12/15 02:41:36;;;;;;;;;;;;;;;-3.25;100.00;100522.56;5056601;28;20053;-83
2022/12/15 02:44:09;;;;;;;;;;;;;;;-3.22;100.00;100532.72;5055365;28;19919;-83
2022/12/15 02:46:44;;;;;;;;;;;;;;;-3.16;100.00;100541.06;5057334;28;19965;-83
2022/12/15 02:49:18;;;;;;;;;;;;;;;-3.06;100.00;100551.78;5064293;28;19971;-83
2022/12/15 02:51:54;;;;;;;;;;;;;;;-2.94;100.00;100556.41;5055752;28;19935;-83
2022/12/15 02:54:57;;;;;;;;;;;;;;;-2.84;100.00;100555.97;5056198;28;19916;-82
2022/12/15 02:57:31;;;;;;;;;;;;;;;-2.64;100.00;100553.28;4997063;28;20454;-80
2022/12/15 03:00:00;;;;;;;;;;;;;;;-2.43;100.00;100556.59;4998131;28;19941;-83
2022/12/15 03:02:27;;;;;;;;;;;;;;;-2.17;100.00;100551.91;5002847;28;20428;-82
2022/12/15 03:04:52;;;;;;;;;;;;;;;-1.86;100.00;100541.66;4996088;28;19913;-83
2022/12/15 03:07:18;;;;;;;;;;;;;;;-1.55;100.00;100531.50;4978823;28;20016;-82
2022/12/15 03:09:43;;;;;;;;;;;;;;;-1.33;100.00;100545.00;4997557;28;19979;-81
2022/12/15 03:12:09;;;;;;;;;;;;;;;-1.20;100.00;100541.75;4998577;28;19925;-81
2022/12/15 03:14:34;;;;;;;;;;;;;;;-1.13;100.00;100537.88;4995527;28;20016;-82
2022/12/15 03:17:00;;;;;;;;;;;;;;;-1.15;100.00;100540.59;4986566;28;19921;-83
2022/12/15 03:19:25;;;;;;;;;;;;;;;-1.18;100.00;100542.50;4997723;28;20368;-82
2022/12/15 03:21:51;;;;;;;;;;;;;;;-1.23;100.00;100550.50;4980951;28;19932;-82
2022/12/15 03:24:16;;;;;;;;;;;;;;;-1.29;100.00;100556.84;4996760;28;19921;-79
2022/12/15 03:26:42;;;;;;;;;;;;;;;-1.32;100.00;100553.59;4963871;28;19914;-82
2022/12/15 03:29:07;;;;;;;;;;;;;;;-1.38;100.00;100549.56;4980179;28;19939;-82
2022/12/15 03:31:33;;;;;;;;;;;;;;;-1.40;100.00;100555.75;5031338;28;19908;-81
2022/12/15 03:33:58;;;;;;;;;;;;;;;-1.46;100.00;100549.13;5055817;28;19920;-80
2022/12/15 03:36:24;;;;;;;;;;;;;;;-1.47;100.00;100552.66;5056021;28;19916;-82
2022/12/15 03:38:49;;;;;;;;;;;;;;;-1.49;100.00;100570.84;5055584;28;19927;-81
2022/12/15 03:41:16;;;;;;;;;;;;;;;-1.50;100.00;100558.00;5055393;28;19921;-81
2022/12/15 03:43:41;;;;;;;;;;;;;;;-1.52;100.00;100555.47;5057433;28;20003;-83
2022/12/15 03:46:07;;;;;;;;;;;;;;;-1.59;100.00;100556.72;5055411;28;20487;-81
2022/12/15 03:48:32;;;;;;;;;;;;;;;-1.63;100.00;100554.34;5056815;28;19916;-82
2022/12/15 03:50:58;;;;;;;;;;;;;;;-1.73;100.00;100552.22;5056859;28;19920;-82
2022/12/15 03:53:23;;;;;;;;;;;;;;;-1.85;100.00;100550.28;5055938;28;19920;-83
2022/12/15 03:55:48;;;;;;;;;;;;;;;-1.95;100.00;100543.91;5054965;28;20372;-83
2022/12/15 03:58:13;;;;;;;;;;;;;;;-2.12;100.00;100548.16;5058922;28;19920;-83
2022/12/15 04:00:39;;;;;;;;;;;;;;;-2.17;100.00;100546.72;5060122;28;20011;-82
2022/12/15 04:03:04;;;;;;;;;;;;;;;-2.19;100.00;100545.97;5059910;28;19916;-83
2022/12/15 04:05:31;;;;;;;;;;;;;;;-2.31;100.00;100547.38;5058556;28;20534;-83
2022/12/15 04:07:57;;;;;;;;;;;;;;;-2.32;100.00;100545.72;5059264;28;19919;-83
2022/12/15 04:10:24;;;;;;;;;;;;;;;-2.32;100.00;100550.91;5061261;28;19909;-83
2022/12/15 04:12:55;;;;;;;;;;;;;;;-2.34;100.00;100552.72;5059363;28;19908;-83
2022/12/15 04:15:20;;;;;;;;;;;;;;;-2.38;100.00;100543.44;5057977;28;20185;-82
2022/12/15 04:17:45;;;;;;;;;;;;;;;-2.38;100.00;100540.84;5043897;28;19951;-84
2022/12/15 04:20:11;;;;;;;;;;;;;;;-2.44;100.00;100544.56;5059662;28;19939;-83
2022/12/15 04:22:41;;;;;;;;;;;;;;;-2.44;100.00;100541.97;5043682;28;19935;-84
2022/12/15 05:33:27;;;;;;;;;;;;;;;-2.66;100.00;100534.41;5058656;28;20684;-83
2022/12/15 05:35:55;;;;;;;;;;;;;;;-2.66;100.00;100533.59;5057367;28;19920;-83
2022/12/15 05:38:20;;;;;;;;;;;;;;;-2.67;100.00;100543.09;5057635;28;19920;-82
2022/12/15 05:40:46;;;;;;;;;;;;;;;-2.68;100.00;100533.66;5040773;28;19967;-84
2022/12/15 05:43:11;;;;;;;;;;;;;;;-2.60;100.00;100543.63;5058798;28;19912;-83
2022/12/15 05:45:36;;;;;;;;;;;;;;;-2.57;100.00;100549.50;5048873;28;20054;-82
2022/12/15 05:48:01;;;;;;;;;;;;;;;-2.53;100.00;100545.84;5056601;28;19920;-84
2022/12/15 05:50:27;;;;;;;;;;;;;;;-2.51;100.00;100546.59;5065977;28;20447;-83
2022/12/15 05:52:53;;;;;;;;;;;;;;;-2.46;100.00;100540.38;5057622;28;19916;-83
2022/12/15 05:55:18;;;;;;;;;;;;;;;-2.50;100.00;100550.88;5055955;28;20711;-82
2022/12/15 05:57:44;;;;;;;;;;;;;;;-2.59;100.00;100559.06;5055019;28;19916;-81
2022/12/15 06:00:09;;;;;;;;;;;;;;;-2.67;100.00;100548.25;5055599;28;19921;-81
2022/12/15 06:02:35;;;;;;;;;;;;;;;-2.72;100.00;100553.66;5056032;28;19912;-83
2022/12/15 06:05:00;;;;;;;;;;;;;;;-2.79;100.00;100543.66;5055249;28;19916;-82
2022/12/15 06:07:27;;;;;;;;;;;;;;;-2.84;100.00;100541.28;5053861;28;20059;-85
2022/12/15 06:09:52;;;;;;;;;;;;;;;-2.76;100.00;100538.38;5055856;28;19955;-85
2022/12/15 06:12:17;;;;;;;;;;;;;;;-2.66;100.00;100549.09;5055322;28;19921;-83
2022/12/15 06:14:42;;;;;;;;;;;;;;;-2.52;100.00;100549.28;5055580;28;20372;-83
2022/12/15 06:17:08;;;;;;;;;;;;;;;-2.40;100.00;100555.59;5036499;28;19993;-85
2022/12/15 06:19:33;;;;;;;;;;;;;;;-2.36;100.00;100559.72;5055377;28;19924;-84
2022/12/15 06:21:58;;;;;;;;;;;;;;;-2.31;100.00;100562.88;5056228;28;19917;-86
2022/12/15 06:24:24;;;;;;;;;;;;;;;-2.25;100.00;100567.78;5056299;28;19913;-88
2022/12/15 06:26:50;;;;;;;;;;;;;;;-2.22;100.00;100564.19;5053565;28;19926;-87
2022/12/15 06:29:15;;;;;;;;;;;;;;;-2.19;100.00;100561.47;5038866;28;20594;-89
2022/12/15 06:31:41;;;;;;;;;;;;;;;-2.18;100.00;100555.38;5039678;28;19981;-88
2022/12/15 06:34:07;;;;;;;;;;;;;;;-2.11;100.00;100567.94;5058881;28;20011;-88
2022/12/15 06:36:33;;;;;;;;;;;;;;;-2.03;100.00;100566.72;5057073;28;20363;-87
2022/12/15 06:38:59;;;;;;;;;;;;;;;-1.95;100.00;100562.00;5055537;28;19978;-87
2022/12/15 06:41:25;;;;;;;;;;;;;;;-1.87;100.00;100557.28;5055996;28;19966;-88
2022/12/15 06:43:52;;;;;;;;;;;;;;;-1.81;100.00;100558.72;5057905;28;20368;-88
2022/12/15 06:46:17;;;;;;;;;;;;;;;-1.78;100.00;100551.63;5055815;28;19931;-85
2022/12/15 06:48:44;;;;;;;;;;;;;;;-1.68;100.00;100565.78;5054138;28;19920;-86
2022/12/15 06:51:10;;;;;;;;;;;;;;;-1.63;100.00;100565.56;5055616;28;20653;-84
2022/12/15 06:53:36;;;;;;;;;;;;;;;-1.59;100.00;100579.16;5055347;28;19923;-86
2022/12/15 06:56:03;;;;;;;;;;;;;;;-1.59;100.00;100579.16;5060161;28;20655;-87
2022/12/15 06:58:28;;;;;;;;;;;;;;;-1.59;100.00;100585.19;5053126;28;20175;-80
2022/12/15 07:00:54;;;;;;;;;;;;;;;-1.57;100.00;100588.50;5056516;28;19999;-83
2022/12/15 07:03:21;;;;;;;;;;;;;;;-1.53;100.00;100578.84;5056108;28;19917;-83
2022/12/15 07:05:47;;;;;;;;;;;;;;;-1.48;100.00;100593.22;5062571;28;19920;-85
2022/12/15 07:08:13;;;;;;;;;;;;;;;-1.48;100.00;100587.19;5048090;28;19966;-82
2022/12/15 07:10:39;;;;;;;;;;;;;;;-1.50;100.00;100595.06;5057070;28;20451;-83
2022/12/15 07:13:04;;;;;;;;;;;;;;;-1.47;100.00;100583.69;5057956;28;20007;-85
2022/12/15 07:15:30;;;;;;;;;;;;;;;-1.37;100.00;100595.25;5058627;28;19909;-88
2022/12/15 07:17:55;;;;;;;;;;;;;;;-1.32;100.00;100593.25;5057754;28;19916;-88
2022/12/15 07:20:20;;;;;;;;;;;;;;;-1.34;100.00;100596.84;5055583;28;20288;-86
2022/12/15 07:22:52;;;;;;;;;;;;;;;-1.29;100.00;100605.19;5059266;28;19948;-86
2022/12/15 07:25:17;;;;;;;;;;;;;;;-1.25;100.00;100604.97;5064014;28;20019;-86
2022/12/15 07:27:43;;;;;;;;;;;;;;;-1.22;100.00;100603.13;5058274;28;20003;-86
2022/12/15 07:30:09;;;;;;;;;;;;;;;-1.15;100.00;100615.69;5059170;28;19962;-86
2022/12/15 07:32:34;;;;;;;;;;;;;;;-1.09;100.00;100610.19;5057971;28;20607;-87
2022/12/15 07:35:00;;;;;;;;;;;;;;;-1.04;100.00;100617.72;5061938;28;19912;-87
2022/12/15 07:37:28;;;;;;;;;;;;;;;-1.00;100.00;100618.38;5063002;28;20558;-86
2022/12/15 07:39:53;;;;;;;;;;;;;;;-0.94;100.00;100624.06;5059986;28;19966;-82
2022/12/15 07:42:18;;;;;;;;;;;;;;;-0.94;100.00;100616.28;5060743;28;19917;-83
2022/12/15 07:44:44;;;;;;;;;;;;;;;-0.87;100.00;100619.38;5058362;28;20367;-81
2022/12/15 07:47:09;;;;;;;;;;;;;;;-0.83;100.00;100615.72;5066608;28;20448;-81
2022/12/15 07:49:34;;;;;;;;;;;;;;;-0.73;100.00;100616.06;5058921;28;19986;-80
2022/12/15 07:51:59;;;;;;;;;;;;;;;-0.68;100.00;100614.06;5058751;28;19920;-80
2022/12/15 07:54:25;;;;;;;;;;;;;;;-0.59;100.00;100618.72;5058669;28;19924;-81
2022/12/15 07:56:51;;;;;;;;;;;;;;;-0.54;100.00;100626.28;5059974;28;19916;-81
2022/12/15 07:59:16;;;;;;;;;;;;;;;-0.50;100.00;100617.38;5059053;28;19920;-82
2022/12/15 08:01:41;;;;;;;;;;;;;;;-0.46;100.00;100614.56;5057991;28;19923;-82
2022/12/15 08:04:06;;;;;;;;;;;;;;;-0.40;100.00;100622.91;5059972;28;19939;-87
2022/12/15 08:06:32;;;;;;;;;;;;;;;-0.38;100.00;100634.03;5060366;28;20545;-82
2022/12/15 08:08:57;;;;;;;;;;;;;;;-0.42;100.00;100623.81;5059409;28;19944;-84
2022/12/15 08:11:24;;;;;;;;;;;;;;;-0.40;100.00;100633.28;5058706;28;20475;-82
2022/12/15 08:13:50;;;;;;;;;;;;;;;-0.41;100.00;100632.47;5060877;28;19923;-82
2022/12/15 08:16:15;;;;;;;;;;;;;;;-0.44;100.00;100635.19;5059395;28;19920;-81
2022/12/15 08:18:40;;;;;;;;;;;;;;;-0.44;100.00;100641.22;5059024;28;19924;-81
2022/12/15 08:21:07;;;;;;;;;;;;;;;-0.47;100.00;100643.97;5059842;28;19912;-82
2022/12/15 08:23:32;;;;;;;;;;;;;;;-0.44;100.00;100641.22;5056923;28;19985;-82
2022/12/15 08:26:24;;;;;;;;;;;;;;;-0.45;100.00;100641.31;5060623;28;20319;-85
2022/12/15 08:28:49;;;;;;;;;;;;;;;-0.43;100.00;100650.69;5054041;28;20318;-85
2022/12/15 08:31:16;;;;;;;;;;;;;;;-0.25;100.00;100661.78;5060005;28;20003;-87
2022/12/15 08:33:43;;;;;;;;;;;;;;;-0.10;100.00;100662.69;5057437;28;20002;-86
2022/12/15 08:36:09;;;;;;;;;;;;;;;-0.06;100.00;100653.81;5060944;28;19912;-83
2022/12/15 08:38:37;;;;;;;;;;;;;;;0.03;100.00;100655.06;5059413;28;19916;-83
2022/12/15 08:41:07;;;;;;;;;;;;;;;0.15;100.00;100650.91;5060204;28;19960;-86
2022/12/15 08:43:32;;;;;;;;;;;;;;;0.45;100.00;100655.28;5074507;28;19913;-85
2022/12/15 08:45:58;;;;;;;;;;;;;;;0.66;100.00;100651.41;5059034;28;19923;-85
2022/12/15 08:48:23;;;;;;;;;;;;;;;0.65;100.00;100649.72;5058966;28;19997;-84
2022/12/15 08:50:49;;;;;;;;;;;;;;;0.70;100.00;100649.47;5059919;28;20419;-86
2022/12/15 08:53:14;;;;;;;;;;;;;;;0.51;100.00;100634.13;5060702;28;20697;-87
2022/12/15 08:55:39;;;;;;;;;;;;;;;0.19;100.00;100642.84;5059573;28;20355;-85
2022/12/15 08:58:04;;;;;;;;;;;;;;;0.10;100.00;100647.75;5060420;28;20575;-83
2022/12/15 09:00:30;;;;;;;;;;;;;;;0.13;100.00;100637.19;5056913;28;19916;-83
2022/12/15 09:02:57;;;;;;;;;;;;;;;0.42;100.00;100645.06;5058199;28;19923;-82
2022/12/15 09:05:22;;;;;;;;;;;;;;;0.55;100.00;100648.63;5060287;28;20679;-82
2022/12/15 09:07:47;;;;;;;;;;;;;;;0.63;100.00;100650.75;5042857;28;19912;-83
2022/12/15 09:10:13;;;;;;;;;;;;;;;1.35;100.00;100651.56;5060310;28;19920;-87
2022/12/15 09:12:38;;;;;;;;;;;;;;;1.00;100.00;100642.44;5058317;28;19916;-87
2022/12/15 09:15:04;;;;;;;;;;;;;;;1.35;100.00;100641.16;5059360;28;19919;-85
2022/12/15 09:17:29;;;;;;;;;;;;;;;1.48;100.00;100634.28;5059231;28;19912;-88
2022/12/15 09:19:55;;;;;;;;;;;;;;;1.55;100.00;100640.75;5043653;28;19921;-85
2022/12/15 09:22:20;;;;;;;;;;;;;;;1.62;100.00;100634.22;5042804;28;19924;-85
2022/12/15 09:24:47;;;;;;;;;;;;;;;1.96;100.00;100634.69;5061369;28;19924;-83
2022/12/15 09:27:12;;;;;;;;;;;;;;;2.31;100.00;100638.47;5057038;28;20015;-81
2022/12/15 09:29:37;;;;;;;;;;;;;;;3.44;100.00;100640.28;5057751;28;20011;-82
2022/12/15 09:32:04;;;;;;;;;;;;;;;4.31;100.00;100639.16;5041654;28;19917;-84
2022/12/15 09:34:29;;;;;;;;;;;;;;;5.18;100.00;100650.88;5049835;28;19947;-86
2022/12/15 09:36:55;;;;;;;;;;;;;;;6.01;100.00;100645.16;5060375;28;19979;-87
2022/12/15 09:39:21;;;;;;;;;;;;;;;6.36;100.00;100644.84;5057800;28;19920;-82
2022/12/15 09:41:53;;;;;;;;;;;;;;;5.70;100.00;100641.50;5065803;28;19921;-84
2022/12/15 09:44:20;;;;;;;;;;;;;;;5.78;100.00;100645.16;5066065;28;19913;-86
2022/12/15 09:47:00;;;;;;;;;;;;;;;6.33;100.00;100649.50;5058326;28;19923;-82
2022/12/15 09:49:43;;;;;;;;;;;;;;;6.48;100.00;100640.34;5056941;28;19912;-81
2022/12/15 09:52:13;;;;;;;;;;;;;;;6.87;100.00;100643.19;5059630;28;19909;-82
2022/12/15 09:54:41;;;;;;;;;;;;;;;6.11;100.00;100648.66;5055992;28;19916;-82
2022/12/15 09:57:13;;;;;;;;;;;;;;;7.26;100.00;100642.53;5055854;28;19920;-82
2022/12/15 09:59:53;;;;;;;;;;;;;;;7.09;100.00;100641.34;5056748;28;19917;-81
2022/12/15 10:02:50;;;;;;;;;;;;;;;6.94;100.00;100633.00;5057896;28;20012;-81
2022/12/15 10:05:18;;;;;;;;;;;;;;;7.23;100.00;100638.38;5035574;28;19913;-80
2022/12/15 10:07:45;;;;;;;;;;;;;;;7.71;99.99;100645.53;5058161;28;20340;-80
2022/12/15 10:10:20;;;;;;;;;;;;;;;8.08;97.09;100652.75;5055468;28;19912;-79
2022/12/15 10:12:46;;;;;;;;;;;;;;;7.86;96.86;100639.88;5057067;28;20268;-84
2022/12/15 10:15:25;;;;;;;;;;;;;;;8.87;95.34;100635.06;5058486;28;19924;-81
2022/12/15 10:18:10;;;;;;;;;;;;;;;9.52;88.63;100640.31;5057242;28;20329;-81
2022/12/15 10:20:36;;;;;;;;;;;;;;;9.60;89.68;100632.47;5053742;28;19917;-82
2022/12/15 10:23:10;;;;;;;;;;;;;;;8.27;90.56;100628.22;5063930;28;19920;-81
2022/12/15 10:25:35;;;;;;;;;;;;;;;8.64;91.58;100636.25;5056615;28;19908;-81
2022/12/15 10:28:20;;;;;;;;;;;;;;;8.46;92.27;100637.94;5056461;28;19920;-82
2022/12/15 10:31:01;;;;;;;;;;;;;;;8.41;91.99;100637.53;5055274;28;19937;-82
2022/12/15 10:33:30;;;;;;;;;;;;;;;8.57;96.57;100640.41;5055787;28;19909;-82
2022/12/15 10:35:55;;;;;;;;;;;;;;;9.03;90.98;100646.63;5057939;28;20326;-82
2022/12/15 10:38:32;;;;;;;;;;;;;;;8.55;91.18;100657.28;5056259;28;19924;-82
2022/12/15 10:40:59;;;;;;;;;;;;;;;6.83;98.93;100647.03;5058680;28;19914;-80
2022/12/15 10:43:35;;;;;;;;;;;;;;;6.33;100.00;100644.25;5057311;28;19917;-82
2022/12/15 10:46:11;;;;;;;;;;;;;;;5.83;100.00;100650.03;5063609;28;19913;-82
2022/12/15 10:48:36;;;;;;;;;;;;;;;5.78;100.00;100650.41;5057505;28;20291;-81
2022/12/15 10:51:16;;;;;;;;;;;;;;;5.88;100.00;100645.28;5039859;28;19912;-82
2022/12/15 10:53:44;;;;;;;;;;;;;;;4.98;100.00;100642.78;5058251;28;20375;-81
2022/12/15 10:56:16;;;;;;;;;;;;;;;4.52;100.00;100634.06;5055252;28;19919;-80
2022/12/15 10:58:46;;;;;;;;;;;;;;;4.60;100.00;100632.69;5055804;28;19916;-80
2022/12/15 11:01:16;;;;;;;;;;;;;;;4.68;100.00;100632.91;5072106;28;19908;-82
2022/12/15 11:03:42;;;;;;;;;;;;;;;4.60;100.00;100643.13;5058284;28;19923;-80
2022/12/15 11:06:12;;;;;;;;;;;;;;;4.52;100.00;100641.09;5041490;28;19916;-84
2022/12/15 11:08:40;;;;;;;;;;;;;;;4.81;100.00;100638.03;5040849;28;19912;-84
2022/12/15 11:14:12;;;;;;;;;;;;;;;4.31;100.00;100630.47;5054800;28;20280;-80
2022/12/15 11:16:57;;;;;;;;;;;;;;;3.81;100.00;100632.41;5055744;28;19912;-81
2022/12/15 11:19:22;;;;;;;;;;;;;;;3.32;100.00;100630.72;5053437;28;20038;-80
2022/12/15 11:21:50;;;;;;;;;;;;;;;3.16;100.00;100631.81;5056775;28;19991;-79
2022/12/15 11:24:22;;;;;;;;;;;;;;;2.93;100.00;100636.00;5055642;28;19912;-80
2022/12/15 11:26:47;;;;;;;;;;;;;;;2.76;100.00;100631.94;5057040;28;20360;-80
2022/12/15 11:29:25;;;;;;;;;;;;;;;2.61;100.00;100632.97;5056635;28;19920;-79
2022/12/15 11:31:51;;;;;;;;;;;;;;;2.71;100.00;100636.66;5056603;28;20287;-80
2022/12/15 11:34:19;;;;;;;;;;;;;;;2.65;100.00;100637.06;5056728;28;19916;-80
2022/12/15 11:37:03;;;;;;;;;;;;;;;2.53;100.00;100628.31;5055430;28;19913;-80
2022/12/15 11:39:51;;;;;;;;;;;;;;;2.63;100.00;100636.31;5064052;28;19939;-81
2022/12/15 11:42:22;;;;;;;;;;;;;;;2.55;100.00;100639.47;5016233;28;20577;-81
2022/12/15 11:45:02;;;;;;;;;;;;;;;2.61;100.00;100643.41;5056807;28;20015;-80
2022/12/15 11:47:30;;;;;;;;;;;;;;;2.54;100.00;100645.59;5072076;28;20352;-80
2022/12/15 11:50:04;;;;;;;;;;;;;;;2.55;100.00;100647.28;5056683;28;20888;-80
2022/12/15 11:52:32;;;;;;;;;;;;;;;2.59;100.00;100648.75;5057082;28;19909;-80
2022/12/15 11:55:01;;;;;;;;;;;;;;;2.55;100.00;100646.41;5055469;28;19912;-80
2022/12/15 11:57:29;;;;;;;;;;;;;;;2.67;100.00;100645.59;5054596;28;19940;-80
2022/12/15 12:00:03;;;;;;;;;;;;;;;2.72;100.00;100643.50;5055692;28;20442;-81
2022/12/15 12:02:31;;;;;;;;;;;;;;;2.79;100.00;100651.78;5056793;28;19912;-81
2022/12/15 12:05:06;;;;;;;;;;;;;;;2.83;100.00;100651.47;5056778;28;19908;-80
2022/12/15 12:07:34;;;;;;;;;;;;;;;2.92;100.00;100649.13;5056081;28;20420;-85
2022/12/15 12:10:18;;;;;;;;;;;;;;;2.82;100.00;100649.78;5056891;28;20283;-87
2022/12/15 12:12:51;;;;;;;;;;;;;;;2.85;100.00;100660.00;5057434;28;19917;-84
2022/12/15 12:15:26;;;;;;;;;;;;;;;2.86;100.00;100655.63;5059417;28;20535;-79
2022/12/15 12:18:00;;;;;;;;;;;;;;;2.85;100.00;100654.78;5063330;28;20419;-79
2022/12/15 12:20:44;;;;;;;;;;;;;;;2.66;100.00;100659.59;5059031;28;20002;-78
2022/12/15 12:23:12;;;;;;;;;;;;;;;2.79;100.00;100659.59;5057450;28;19993;-82
2022/12/15 12:25:52;;;;;;;;;;;;;;;2.90;100.00;100672.72;5060811;28;19916;-80
2022/12/15 12:28:23;;;;;;;;;;;;;;;3.08;100.00;100654.97;5059563;28;19973;-79
2022/12/15 12:30:49;;;;;;;;;;;;;;;3.11;100.00;100646.09;5057758;28;19935;-83
2022/12/15 12:33:17;;;;;;;;;;;;;;;3.02;100.00;100639.75;5060854;28;19916;-80
2022/12/15 12:35:49;;;;;;;;;;;;;;;3.06;100.00;100636.00;5059783;28;19912;-76
2022/12/15 12:38:24;;;;;;;;;;;;;;;3.04;100.00;100640.47;5061157;28;19913;-76
2022/12/15 12:41:10;;;;;;;;;;;;;;;2.90;100.00;100641.44;5059309;28;19916;-78
2022/12/15 12:43:37;;;;;;;;;;;;;;;2.87;100.00;100639.88;5059438;28;19943;-77
2022/12/15 12:46:09;;;;;;;;;;;;;;;2.82;100.00;100634.13;5059181;28;20003;-77
2022/12/15 12:48:40;;;;;;;;;;;;;;;2.98;100.00;100643.50;5058360;28;19912;-77
2022/12/15 12:51:08;;;;;;;;;;;;;;;2.86;100.00;100633.00;5059428;28;19991;-78
2022/12/15 12:53:33;;;;;;;;;;;;;;;2.94;100.00;100636.81;5060527;28;20456;-79
2022/12/15 12:55:59;;;;;;;;;;;;;;;2.91;100.00;100637.88;5041672;28;19917;-80
2022/12/15 12:58:36;;;;;;;;;;;;;;;2.95;100.00;100630.69;5041898;28;19919;-78
2022/12/15 13:01:24;;;;;;;;;;;;;;;2.99;100.00;100632.16;5056323;28;20007;-80
2022/12/15 13:04:09;;;;;;;;;;;;;;;3.08;100.00;100629.72;5057624;28;19962;-77
2022/12/15 13:06:34;;;;;;;;;;;;;;;3.12;100.00;100627.75;5058581;28;19908;-79
2022/12/15 13:09:18;;;;;;;;;;;;;;;3.16;100.00;100625.72;5059365;28;19919;-77
2022/12/15 13:11:43;;;;;;;;;;;;;;;3.14;100.00;100627.66;5058874;28;20025;-79
2022/12/15 13:14:13;;;;;;;;;;;;;;;3.19;100.00;100626.38;5057482;28;19908;-77
2022/12/15 13:16:38;;;;;;;;;;;;;;;3.17;100.00;100630.03;5058545;28;19995;-77
2022/12/15 13:19:05;;;;;;;;;;;;;;;3.17;100.00;100628.25;5060105;28;20015;-78
2022/12/15 13:21:40;;;;;;;;;;;;;;;3.16;100.00;100617.91;5059189;28;19916;-77
2022/12/15 13:24:18;;;;;;;;;;;;;;;3.15;100.00;100629.31;5058175;28;19912;-75
2022/12/15 13:26:44;;;;;;;;;;;;;;;3.16;100.00;100618.78;5061388;28;19931;-79
2022/12/15 13:29:13;;;;;;;;;;;;;;;3.16;100.00;100623.13;5059063;28;19962;-83
2022/12/15 13:31:43;;;;;;;;;;;;;;;3.07;100.00;100622.00;5073831;28;19912;-79
2022/12/15 13:34:14;;;;;;;;;;;;;;;3.05;100.00;100624.72;5065165;28;19912;-80
2022/12/15 13:36:39;;;;;;;;;;;;;;;2.94;100.00;100622.03;5042352;28;20007;-79
2022/12/15 13:39:11;;;;;;;;;;;;;;;3.02;100.00;100624.09;5058114;28;20007;-78
2022/12/15 13:41:36;;;;;;;;;;;;;;;3.00;100.00;100615.56;5058896;28;19920;-80
2022/12/15 13:44:12;;;;;;;;;;;;;;;3.00;100.00;100615.56;5056760;28;19924;-80
2022/12/15 13:46:37;;;;;;;;;;;;;;;2.79;100.00;100613.50;5057295;28;19995;-78
2022/12/15 13:49:26;;;;;;;;;;;;;;;2.73;100.00;100608.72;5041781;28;20018;-80
2022/12/15 13:51:57;;;;;;;;;;;;;;;2.62;100.00;100612.03;4986309;28;19917;-78
2022/12/15 13:54:29;;;;;;;;;;;;;;;2.65;100.00;100614.44;4985549;28;19996;-80
2022/12/15 13:57:00;;;;;;;;;;;;;;;2.53;100.00;100611.84;4985986;28;19936;-78
2022/12/15 13:59:29;;;;;;;;;;;;;;;2.45;100.00;100615.78;4985081;28;19918;-79
2022/12/15 14:01:54;;;;;;;;;;;;;;;2.37;100.00;100619.84;4985162;28;20444;-79
2022/12/15 14:04:20;;;;;;;;;;;;;;;2.36;100.00;100628.59;4968947;28;20033;-79
2022/12/15 14:06:53;;;;;;;;;;;;;;;2.38;100.00;100630.16;4969745;28;20352;-79
2022/12/15 14:09:21;;;;;;;;;;;;;;;2.36;100.00;100626.00;4985039;28;19914;-78
2022/12/15 14:11:47;;;;;;;;;;;;;;;2.31;100.00;100615.91;4984785;28;19914;-78
2022/12/15 14:14:17;;;;;;;;;;;;;;;2.31;100.00;100620.25;4968047;28;20008;-78
2022/12/15 14:16:42;;;;;;;;;;;;;;;2.18;100.00;100623.69;4985098;28;19909;-78
2022/12/15 14:19:13;;;;;;;;;;;;;;;2.11;100.00;100627.59;4969215;28;19956;-78
2022/12/15 14:21:38;;;;;;;;;;;;;;;2.09;100.00;100629.50;4969404;28;19997;-79
2022/12/15 14:24:14;;;;;;;;;;;;;;;2.02;100.00;100629.03;4967769;28;20008;-78
2022/12/15 14:26:40;;;;;;;;;;;;;;;2.02;100.00;100629.03;4984378;28;19933;-78
2022/12/15 14:29:05;;;;;;;;;;;;;;;1.95;100.00;100632.16;5028974;28;20354;-78
2022/12/15 14:31:30;;;;;;;;;;;;;;;1.90;100.00;100635.06;5047336;28;19919;-78
2022/12/15 14:34:05;;;;;;;;;;;;;;;1.80;100.00;100639.19;5040109;28;20434;-79
2022/12/15 14:36:31;;;;;;;;;;;;;;;1.89;100.00;100638.59;5056011;28;19948;-78
2022/12/15 14:38:56;;;;;;;;;;;;;;;1.93;100.00;100634.84;5056141;28;20378;-79
2022/12/15 14:41:22;;;;;;;;;;;;;;;1.94;100.00;100641.75;5055854;28;20008;-79
2022/12/15 14:43:50;;;;;;;;;;;;;;;1.88;100.00;100636.09;5056111;28;19959;-80
2022/12/15 14:46:21;;;;;;;;;;;;;;;1.90;100.00;100636.84;5054735;28;19952;-76
2022/12/15 14:48:53;;;;;;;;;;;;;;;1.88;100.00;100638.72;5055546;28;19908;-79
2022/12/15 14:51:19;;;;;;;;;;;;;;;1.92;100.00;100632.38;5055716;28;19919;-77
2022/12/15 14:53:48;;;;;;;;;;;;;;;1.86;100.00;100641.41;5070987;28;19918;-77
2022/12/15 14:56:13;;;;;;;;;;;;;;;1.90;100.00;100644.66;5055648;28;19908;-78
2022/12/15 14:58:39;;;;;;;;;;;;;;;1.88;100.00;100646.53;5055839;28;19970;-78
2022/12/15 15:01:23;;;;;;;;;;;;;;;1.84;100.00;100635.47;5057151;28;19912;-78
2022/12/15 15:04:00;;;;;;;;;;;;;;;1.84;100.00;100638.88;5061164;28;20501;-77
2022/12/15 15:06:30;;;;;;;;;;;;;;;1.87;100.00;100635.25;5055779;28;20004;-78